sensor_id;sensor_type;location;lat;lon;timestamp;P1;durP1;ratioP1;P2;durP2;ratioP2
85642;SDS011;76068;52.404;16.862;2024-02-28T00:01:31;105.38;;;41.80;;
85642;SDS011;76068;52.404;16.862;2024-02-28T00:03:57;103.55;;;40.20;;
85642;SDS011;76068;52.404;16.862;2024-02-28T00:06:22;94.65;;;37.90;;
85642;SDS011;76068;52.404;16.862;2024-02-28T00:08:48;87.88;;;35.55;;
85642;SDS011;76068;52.404;16.862;2024-02-28T00:11:16;104.35;;;38.28;;
85642;SDS011;76068;52.404;16.862;2024-02-28T00:13:42;98.38;;;38.72;;
85642;SDS011;76068;52.404;16.862;2024-02-28T00:16:07;95.25;;;36.10;;
85642;SDS011;76068;52.404;16.862;2024-02-28T00:18:33;97.75;;;37.72;;
85642;SDS011;76068;52.404;16.862;2024-02-28T00:20:59;100.15;;;37.45;;
85642;SDS011;76068;52.404;16.862;2024-02-28T00:23:24;85.28;;;34.00;;
85642;SDS011;76068;52.404;16.862;2024-02-28T00:25:50;83.40;;;32.63;;
85642;SDS011;76068;52.404;16.862;2024-02-28T00:28:16;93.55;;;36.38;;
85642;SDS011;76068;52.404;16.862;2024-02-28T00:30:41;84.63;;;35.28;;
85642;SDS011;76068;52.404;16.862;2024-02-28T00:33:07;87.22;;;35.05;;
85642;SDS011;76068;52.404;16.862;2024-02-28T00:35:32;93.80;;;35.67;;
85642;SDS011;76068;52.404;16.862;2024-02-28T00:38:02;88.30;;;37.47;;
85642;SDS011;76068;52.404;16.862;2024-02-28T00:40:27;91.05;;;36.40;;
85642;SDS011;76068;52.404;16.862;2024-02-28T00:42:54;93.90;;;36.63;;
85642;SDS011;76068;52.404;16.862;2024-02-28T00:45:20;101.57;;;38.70;;
85642;SDS011;76068;52.404;16.862;2024-02-28T00:47:46;102.05;;;37.72;;
85642;SDS011;76068;52.404;16.862;2024-02-28T00:50:11;111.65;;;41.92;;
85642;SDS011;76068;52.404;16.862;2024-02-28T00:52:37;92.18;;;38.13;;
85642;SDS011;76068;52.404;16.862;2024-02-28T00:55:03;96.68;;;40.28;;
85642;SDS011;76068;52.404;16.862;2024-02-28T00:57:30;93.75;;;40.00;;
85642;SDS011;76068;52.404;16.862;2024-02-28T00:59:56;106.40;;;41.55;;
85642;SDS011;76068;52.404;16.862;2024-02-28T01:02:22;100.50;;;39.17;;
85642;SDS011;76068;52.404;16.862;2024-02-28T01:04:47;102.35;;;37.92;;
85642;SDS011;76068;52.404;16.862;2024-02-28T01:07:13;94.53;;;37.45;;
85642;SDS011;76068;52.404;16.862;2024-02-28T01:09:39;97.72;;;36.65;;
85642;SDS011;76068;52.404;16.862;2024-02-28T01:12:04;93.25;;;37.15;;
85642;SDS011;76068;52.404;16.862;2024-02-28T01:14:30;99.55;;;37.67;;
85642;SDS011;76068;52.404;16.862;2024-02-28T01:16:56;92.97;;;36.20;;
85642;SDS011;76068;52.404;16.862;2024-02-28T01:19:21;110.15;;;41.08;;
85642;SDS011;76068;52.404;16.862;2024-02-28T01:21:47;109.75;;;41.58;;
85642;SDS011;76068;52.404;16.862;2024-02-28T01:27:20;109.15;;;42.90;;
85642;SDS011;76068;52.404;16.862;2024-02-28T01:29:46;94.70;;;38.58;;
85642;SDS011;76068;52.404;16.862;2024-02-28T01:32:11;103.70;;;38.95;;
85642;SDS011;76068;52.404;16.862;2024-02-28T01:34:37;96.43;;;37.63;;
85642;SDS011;76068;52.404;16.862;2024-02-28T01:37:03;113.32;;;43.42;;
85642;SDS011;76068;52.404;16.862;2024-02-28T01:40:29;108.78;;;38.85;;
85642;SDS011;76068;52.404;16.862;2024-02-28T01:42:55;122.00;;;44.22;;
85642;SDS011;76068;52.404;16.862;2024-02-28T01:45:27;119.43;;;44.25;;
85642;SDS011;76068;52.404;16.862;2024-02-28T01:47:52;100.68;;;39.88;;
85642;SDS011;76068;52.404;16.862;2024-02-28T01:50:18;104.97;;;39.60;;
85642;SDS011;76068;52.404;16.862;2024-02-28T01:52:44;96.80;;;41.17;;
85642;SDS011;76068;52.404;16.862;2024-02-28T01:55:10;121.22;;;45.67;;
85642;SDS011;76068;52.404;16.862;2024-02-28T01:57:36;113.90;;;45.53;;
85642;SDS011;76068;52.404;16.862;2024-02-28T02:00:02;120.10;;;44.80;;
85642;SDS011;76068;52.404;16.862;2024-02-28T02:02:29;111.47;;;40.88;;
85642;SDS011;76068;52.404;16.862;2024-02-28T02:04:55;104.13;;;39.10;;
85642;SDS011;76068;52.404;16.862;2024-02-28T02:07:23;104.93;;;38.75;;
85642;SDS011;76068;52.404;16.862;2024-02-28T02:09:49;110.15;;;39.70;;
85642;SDS011;76068;52.404;16.862;2024-02-28T02:12:15;106.82;;;39.40;;
85642;SDS011;76068;52.404;16.862;2024-02-28T02:14:41;119.07;;;41.38;;
85642;SDS011;76068;52.404;16.862;2024-02-28T02:17:13;105.72;;;39.63;;
85642;SDS011;76068;52.404;16.862;2024-02-28T02:19:38;116.35;;;41.30;;
85642;SDS011;76068;52.404;16.862;2024-02-28T02:22:04;119.90;;;41.38;;
85642;SDS011;76068;52.404;16.862;2024-02-28T02:24:30;111.13;;;38.53;;
85642;SDS011;76068;52.404;16.862;2024-02-28T02:26:58;115.03;;;38.50;;
85642;SDS011;76068;52.404;16.862;2024-02-28T02:29:23;109.22;;;39.33;;
85642;SDS011;76068;52.404;16.862;2024-02-28T02:31:49;96.70;;;36.95;;
85642;SDS011;76068;52.404;16.862;2024-02-28T02:34:14;98.90;;;34.90;;
85642;SDS011;76068;52.404;16.862;2024-02-28T02:36:40;122.40;;;41.28;;
85642;SDS011;76068;52.404;16.862;2024-02-28T02:39:06;93.15;;;35.15;;
85642;SDS011;76068;52.404;16.862;2024-02-28T02:41:33;102.22;;;36.38;;
85642;SDS011;76068;52.404;16.862;2024-02-28T02:43:59;112.60;;;38.80;;
85642;SDS011;76068;52.404;16.862;2024-02-28T02:46:25;84.20;;;34.55;;
85642;SDS011;76068;52.404;16.862;2024-02-28T02:48:50;100.93;;;36.33;;
85642;SDS011;76068;52.404;16.862;2024-02-28T02:51:19;112.20;;;36.90;;
85642;SDS011;76068;52.404;16.862;2024-02-28T02:53:45;100.22;;;35.85;;
85642;SDS011;76068;52.404;16.862;2024-02-28T02:56:10;99.38;;;36.92;;
85642;SDS011;76068;52.404;16.862;2024-02-28T02:58:36;110.22;;;35.42;;
85642;SDS011;76068;52.404;16.862;2024-02-28T03:01:02;95.45;;;34.75;;
85642;SDS011;76068;52.404;16.862;2024-02-28T03:03:28;97.32;;;33.95;;
85642;SDS011;76068;52.404;16.862;2024-02-28T03:05:53;98.22;;;33.47;;
85642;SDS011;76068;52.404;16.862;2024-02-28T03:08:19;101.32;;;34.97;;
85642;SDS011;76068;52.404;16.862;2024-02-28T03:10:45;140.55;;;38.63;;
85642;SDS011;76068;52.404;16.862;2024-02-28T03:13:10;106.63;;;34.72;;
85642;SDS011;76068;52.404;16.862;2024-02-28T03:15:36;110.03;;;34.63;;
85642;SDS011;76068;52.404;16.862;2024-02-28T03:18:01;116.43;;;35.78;;
85642;SDS011;76068;52.404;16.862;2024-02-28T03:20:27;112.03;;;33.90;;
85642;SDS011;76068;52.404;16.862;2024-02-28T03:22:53;155.55;;;39.03;;
85642;SDS011;76068;52.404;16.862;2024-02-28T03:25:19;139.85;;;38.38;;
85642;SDS011;76068;52.404;16.862;2024-02-28T03:27:44;172.98;;;41.17;;
85642;SDS011;76068;52.404;16.862;2024-02-28T03:30:10;146.10;;;38.22;;
85642;SDS011;76068;52.404;16.862;2024-02-28T03:32:36;135.95;;;37.38;;
85642;SDS011;76068;52.404;16.862;2024-02-28T03:35:02;117.15;;;34.70;;
85642;SDS011;76068;52.404;16.862;2024-02-28T03:37:29;128.73;;;36.28;;
85642;SDS011;76068;52.404;16.862;2024-02-28T03:39:55;122.55;;;35.97;;
85642;SDS011;76068;52.404;16.862;2024-02-28T03:42:20;128.93;;;34.25;;
85642;SDS011;76068;52.404;16.862;2024-02-28T03:44:46;143.98;;;36.03;;
85642;SDS011;76068;52.404;16.862;2024-02-28T03:47:12;185.23;;;38.42;;
85642;SDS011;76068;52.404;16.862;2024-02-28T03:49:38;327.60;;;53.08;;
85642;SDS011;76068;52.404;16.862;2024-02-28T03:52:03;249.82;;;47.03;;
85642;SDS011;76068;52.404;16.862;2024-02-28T03:54:31;197.45;;;39.83;;
85642;SDS011;76068;52.404;16.862;2024-02-28T03:56:57;135.00;;;31.23;;
85642;SDS011;76068;52.404;16.862;2024-02-28T03:59:24;314.80;;;48.30;;
85642;SDS011;76068;52.404;16.862;2024-02-28T04:01:49;244.70;;;43.35;;
85642;SDS011;76068;52.404;16.862;2024-02-28T04:04:15;130.35;;;33.13;;
85642;SDS011;76068;52.404;16.862;2024-02-28T04:06:41;142.65;;;31.75;;
85642;SDS011;76068;52.404;16.862;2024-02-28T04:09:07;148.73;;;31.27;;
85642;SDS011;76068;52.404;16.862;2024-02-28T04:11:32;136.25;;;33.25;;
85642;SDS011;76068;52.404;16.862;2024-02-28T04:13:59;110.90;;;29.45;;
85642;SDS011;76068;52.404;16.862;2024-02-28T04:16:25;104.90;;;27.42;;
85642;SDS011;76068;52.404;16.862;2024-02-28T04:18:50;127.15;;;28.17;;
85642;SDS011;76068;52.404;16.862;2024-02-28T04:21:16;103.78;;;25.33;;
85642;SDS011;76068;52.404;16.862;2024-02-28T04:23:42;119.53;;;29.38;;
85642;SDS011;76068;52.404;16.862;2024-02-28T04:26:09;120.28;;;28.58;;
85642;SDS011;76068;52.404;16.862;2024-02-28T04:28:35;90.35;;;25.20;;
85642;SDS011;76068;52.404;16.862;2024-02-28T04:31:01;138.45;;;29.45;;
85642;SDS011;76068;52.404;16.862;2024-02-28T04:33:26;120.25;;;29.02;;
85642;SDS011;76068;52.404;16.862;2024-02-28T04:35:52;128.25;;;26.67;;
85642;SDS011;76068;52.404;16.862;2024-02-28T04:38:18;124.63;;;27.45;;
85642;SDS011;76068;52.404;16.862;2024-02-28T04:40:43;155.70;;;30.15;;
85642;SDS011;76068;52.404;16.862;2024-02-28T04:43:09;117.25;;;28.15;;
85642;SDS011;76068;52.404;16.862;2024-02-28T04:45:34;116.28;;;25.25;;
85642;SDS011;76068;52.404;16.862;2024-02-28T04:48:01;95.55;;;24.38;;
85642;SDS011;76068;52.404;16.862;2024-02-28T04:50:26;122.20;;;25.95;;
85642;SDS011;76068;52.404;16.862;2024-02-28T04:52:52;138.18;;;29.35;;
85642;SDS011;76068;52.404;16.862;2024-02-28T04:55:18;127.55;;;25.20;;
85642;SDS011;76068;52.404;16.862;2024-02-28T04:57:43;111.30;;;23.75;;
85642;SDS011;76068;52.404;16.862;2024-02-28T05:00:09;107.63;;;24.27;;
85642;SDS011;76068;52.404;16.862;2024-02-28T05:02:35;102.22;;;23.70;;
85642;SDS011;76068;52.404;16.862;2024-02-28T05:05:01;95.85;;;24.00;;
85642;SDS011;76068;52.404;16.862;2024-02-28T05:07:27;123.85;;;25.17;;
85642;SDS011;76068;52.404;16.862;2024-02-28T05:09:52;117.15;;;26.30;;
85642;SDS011;76068;52.404;16.862;2024-02-28T05:12:18;125.75;;;25.13;;
85642;SDS011;76068;52.404;16.862;2024-02-28T05:14:43;159.05;;;30.38;;
85642;SDS011;76068;52.404;16.862;2024-02-28T05:17:09;130.88;;;25.45;;
85642;SDS011;76068;52.404;16.862;2024-02-28T05:19:35;100.45;;;22.73;;
85642;SDS011;76068;52.404;16.862;2024-02-28T05:22:00;118.45;;;24.92;;
85642;SDS011;76068;52.404;16.862;2024-02-28T05:24:27;102.72;;;23.65;;
85642;SDS011;76068;52.404;16.862;2024-02-28T05:26:52;116.82;;;26.90;;
85642;SDS011;76068;52.404;16.862;2024-02-28T05:29:18;101.35;;;23.42;;
85642;SDS011;76068;52.404;16.862;2024-02-28T05:31:44;126.10;;;25.02;;
85642;SDS011;76068;52.404;16.862;2024-02-28T05:34:09;139.45;;;25.95;;
85642;SDS011;76068;52.404;16.862;2024-02-28T05:36:35;150.07;;;28.08;;
85642;SDS011;76068;52.404;16.862;2024-02-28T05:39:00;161.88;;;27.85;;
85642;SDS011;76068;52.404;16.862;2024-02-28T05:41:27;113.68;;;24.70;;
85642;SDS011;76068;52.404;16.862;2024-02-28T05:43:52;124.07;;;24.92;;
85642;SDS011;76068;52.404;16.862;2024-02-28T05:46:18;112.10;;;24.92;;
85642;SDS011;76068;52.404;16.862;2024-02-28T05:48:44;112.60;;;23.48;;
85642;SDS011;76068;52.404;16.862;2024-02-28T05:51:11;80.07;;;22.08;;
85642;SDS011;76068;52.404;16.862;2024-02-28T05:53:38;65.43;;;18.70;;
85642;SDS011;76068;52.404;16.862;2024-02-28T05:56:05;84.85;;;20.75;;
85642;SDS011;76068;52.404;16.862;2024-02-28T05:58:38;88.68;;;19.75;;
85642;SDS011;76068;52.404;16.862;2024-02-28T06:01:08;81.88;;;19.27;;
85642;SDS011;76068;52.404;16.862;2024-02-28T06:03:34;79.22;;;21.83;;
85642;SDS011;76068;52.404;16.862;2024-02-28T06:06:00;74.80;;;18.67;;
85642;SDS011;76068;52.404;16.862;2024-02-28T06:08:26;101.65;;;22.38;;
85642;SDS011;76068;52.404;16.862;2024-02-28T06:10:52;98.38;;;23.40;;
85642;SDS011;76068;52.404;16.862;2024-02-28T06:13:18;114.20;;;23.05;;
85642;SDS011;76068;52.404;16.862;2024-02-28T06:15:44;83.68;;;19.30;;
85642;SDS011;76068;52.404;16.862;2024-02-28T06:18:09;92.95;;;22.25;;
85642;SDS011;76068;52.404;16.862;2024-02-28T06:20:35;105.70;;;21.70;;
85642;SDS011;76068;52.404;16.862;2024-02-28T06:23:02;95.88;;;19.23;;
85642;SDS011;76068;52.404;16.862;2024-02-28T06:25:28;90.88;;;20.75;;
85642;SDS011;76068;52.404;16.862;2024-02-28T06:27:53;87.15;;;21.00;;
85642;SDS011;76068;52.404;16.862;2024-02-28T06:30:19;145.70;;;24.55;;
85642;SDS011;76068;52.404;16.862;2024-02-28T06:32:45;111.50;;;23.02;;
85642;SDS011;76068;52.404;16.862;2024-02-28T06:35:11;85.13;;;19.65;;
85642;SDS011;76068;52.404;16.862;2024-02-28T06:37:36;91.85;;;20.40;;
85642;SDS011;76068;52.404;16.862;2024-02-28T06:40:02;80.68;;;20.27;;
85642;SDS011;76068;52.404;16.862;2024-02-28T06:42:34;85.65;;;21.52;;
85642;SDS011;76068;52.404;16.862;2024-02-28T06:45:02;81.13;;;19.55;;
85642;SDS011;76068;52.404;16.862;2024-02-28T06:47:30;77.30;;;17.77;;
85642;SDS011;76068;52.404;16.862;2024-02-28T06:49:56;85.82;;;19.80;;
85642;SDS011;76068;52.404;16.862;2024-02-28T06:52:21;81.80;;;20.48;;
85642;SDS011;76068;52.404;16.862;2024-02-28T06:54:47;73.72;;;21.65;;
85642;SDS011;76068;52.404;16.862;2024-02-28T06:57:13;88.85;;;22.98;;
85642;SDS011;76068;52.404;16.862;2024-02-28T06:59:39;72.50;;;20.38;;
85642;SDS011;76068;52.404;16.862;2024-02-28T07:02:04;63.92;;;19.42;;
85642;SDS011;76068;52.404;16.862;2024-02-28T07:04:30;71.43;;;21.77;;
85642;SDS011;76068;52.404;16.862;2024-02-28T07:06:56;72.25;;;20.77;;
85642;SDS011;76068;52.404;16.862;2024-02-28T07:09:22;63.50;;;17.25;;
85642;SDS011;76068;52.404;16.862;2024-02-28T07:11:51;69.88;;;18.60;;
85642;SDS011;76068;52.404;16.862;2024-02-28T07:14:17;81.78;;;23.35;;
85642;SDS011;76068;52.404;16.862;2024-02-28T07:16:42;91.32;;;22.38;;
85642;SDS011;76068;52.404;16.862;2024-02-28T07:19:09;73.80;;;21.75;;
85642;SDS011;76068;52.404;16.862;2024-02-28T07:21:35;69.53;;;21.38;;
85642;SDS011;76068;52.404;16.862;2024-02-28T07:24:02;90.30;;;23.17;;
85642;SDS011;76068;52.404;16.862;2024-02-28T07:26:30;81.20;;;24.30;;
85642;SDS011;76068;52.404;16.862;2024-02-28T07:28:56;91.28;;;25.13;;
85642;SDS011;76068;52.404;16.862;2024-02-28T07:31:21;79.47;;;23.98;;
85642;SDS011;76068;52.404;16.862;2024-02-28T07:33:48;71.97;;;23.08;;
85642;SDS011;76068;52.404;16.862;2024-02-28T07:36:13;79.43;;;21.92;;
85642;SDS011;76068;52.404;16.862;2024-02-28T07:38:43;80.75;;;23.52;;
85642;SDS011;76068;52.404;16.862;2024-02-28T07:41:08;129.95;;;26.02;;
85642;SDS011;76068;52.404;16.862;2024-02-28T07:43:34;124.90;;;22.30;;
85642;SDS011;76068;52.404;16.862;2024-02-28T07:46:10;155.20;;;26.40;;
85642;SDS011;76068;52.404;16.862;2024-02-28T07:48:37;140.73;;;26.45;;
85642;SDS011;76068;52.404;16.862;2024-02-28T07:51:06;200.60;;;30.30;;
85642;SDS011;76068;52.404;16.862;2024-02-28T07:53:33;166.98;;;25.38;;
85642;SDS011;76068;52.404;16.862;2024-02-28T07:55:59;200.98;;;27.85;;
85642;SDS011;76068;52.404;16.862;2024-02-28T07:58:25;143.00;;;25.42;;
85642;SDS011;76068;52.404;16.862;2024-02-28T08:00:51;146.50;;;25.77;;
85642;SDS011;76068;52.404;16.862;2024-02-28T08:03:20;122.50;;;23.55;;
85642;SDS011;76068;52.404;16.862;2024-02-28T08:05:46;146.77;;;24.92;;
85642;SDS011;76068;52.404;16.862;2024-02-28T08:08:14;108.00;;;22.40;;
85642;SDS011;76068;52.404;16.862;2024-02-28T08:10:40;124.05;;;24.60;;
85642;SDS011;76068;52.404;16.862;2024-02-28T08:13:06;116.88;;;23.90;;
85642;SDS011;76068;52.404;16.862;2024-02-28T08:15:32;104.75;;;21.83;;
85642;SDS011;76068;52.404;16.862;2024-02-28T08:17:58;116.03;;;25.60;;
85642;SDS011;76068;52.404;16.862;2024-02-28T08:20:24;120.60;;;25.48;;
85642;SDS011;76068;52.404;16.862;2024-02-28T08:22:50;84.55;;;20.67;;
85642;SDS011;76068;52.404;16.862;2024-02-28T08:25:18;78.05;;;19.50;;
85642;SDS011;76068;52.404;16.862;2024-02-28T08:27:44;61.40;;;18.60;;
85642;SDS011;76068;52.404;16.862;2024-02-28T08:30:10;60.20;;;17.83;;
85642;SDS011;76068;52.404;16.862;2024-02-28T08:32:36;70.88;;;18.25;;
85642;SDS011;76068;52.404;16.862;2024-02-28T08:35:01;92.00;;;19.08;;
85642;SDS011;76068;52.404;16.862;2024-02-28T08:37:27;52.42;;;16.88;;
85642;SDS011;76068;52.404;16.862;2024-02-28T08:39:54;87.80;;;21.67;;
85642;SDS011;76068;52.404;16.862;2024-02-28T08:42:26;109.25;;;20.70;;
85642;SDS011;76068;52.404;16.862;2024-02-28T08:44:52;62.55;;;19.40;;
85642;SDS011;76068;52.404;16.862;2024-02-28T08:47:23;70.10;;;20.15;;
85642;SDS011;76068;52.404;16.862;2024-02-28T08:49:49;62.95;;;17.63;;
85642;SDS011;76068;52.404;16.862;2024-02-28T08:52:15;51.63;;;16.67;;
85642;SDS011;76068;52.404;16.862;2024-02-28T08:54:40;52.30;;;16.10;;
85642;SDS011;76068;52.404;16.862;2024-02-28T08:57:06;37.33;;;14.45;;
85642;SDS011;76068;52.404;16.862;2024-02-28T08:59:32;47.72;;;14.90;;
85642;SDS011;76068;52.404;16.862;2024-02-28T09:01:58;48.58;;;14.88;;
85642;SDS011;76068;52.404;16.862;2024-02-28T09:04:24;52.85;;;16.40;;
85642;SDS011;76068;52.404;16.862;2024-02-28T09:06:50;46.95;;;16.85;;
85642;SDS011;76068;52.404;16.862;2024-02-28T09:09:18;47.70;;;16.95;;
85642;SDS011;76068;52.404;16.862;2024-02-28T09:11:44;49.15;;;14.85;;
85642;SDS011;76068;52.404;16.862;2024-02-28T09:14:10;44.22;;;14.43;;
85642;SDS011;76068;52.404;16.862;2024-02-28T09:16:36;42.38;;;15.02;;
85642;SDS011;76068;52.404;16.862;2024-02-28T09:19:02;38.08;;;13.80;;
85642;SDS011;76068;52.404;16.862;2024-02-28T09:23:54;45.20;;;14.48;;
85642;SDS011;76068;52.404;16.862;2024-02-28T09:26:20;41.50;;;15.88;;
85642;SDS011;76068;52.404;16.862;2024-02-28T09:28:46;32.08;;;13.32;;
85642;SDS011;76068;52.404;16.862;2024-02-28T09:31:12;29.85;;;12.60;;
85642;SDS011;76068;52.404;16.862;2024-02-28T09:33:38;28.45;;;13.65;;
85642;SDS011;76068;52.404;16.862;2024-02-28T09:36:04;29.55;;;14.13;;
85642;SDS011;76068;52.404;16.862;2024-02-28T09:38:30;29.05;;;11.15;;
85642;SDS011;76068;52.404;16.862;2024-02-28T09:40:58;33.80;;;14.05;;
85642;SDS011;76068;52.404;16.862;2024-02-28T09:43:25;31.77;;;12.55;;
85642;SDS011;76068;52.404;16.862;2024-02-28T09:45:59;36.28;;;12.93;;
85642;SDS011;76068;52.404;16.862;2024-02-28T09:48:28;28.30;;;10.70;;
85642;SDS011;76068;52.404;16.862;2024-02-28T09:50:55;30.67;;;11.43;;
85642;SDS011;76068;52.404;16.862;2024-02-28T09:53:22;27.13;;;10.80;;
85642;SDS011;76068;52.404;16.862;2024-02-28T09:55:49;29.08;;;12.77;;
85642;SDS011;76068;52.404;16.862;2024-02-28T09:58:15;23.38;;;11.40;;
85642;SDS011;76068;52.404;16.862;2024-02-28T10:00:43;23.98;;;10.35;;
85642;SDS011;76068;52.404;16.862;2024-02-28T10:03:13;23.63;;;9.90;;
85642;SDS011;76068;52.404;16.862;2024-02-28T10:05:43;25.70;;;10.98;;
85642;SDS011;76068;52.404;16.862;2024-02-28T10:08:09;40.50;;;17.13;;
85642;SDS011;76068;52.404;16.862;2024-02-28T10:10:38;60.63;;;24.27;;
85642;SDS011;76068;52.404;16.862;2024-02-28T10:13:10;24.92;;;10.60;;
85642;SDS011;76068;52.404;16.862;2024-02-28T10:15:36;17.75;;;9.07;;
85642;SDS011;76068;52.404;16.862;2024-02-28T10:18:01;19.20;;;8.75;;
85642;SDS011;76068;52.404;16.862;2024-02-28T10:20:27;24.00;;;9.27;;
85642;SDS011;76068;52.404;16.862;2024-02-28T10:22:56;19.77;;;9.60;;
85642;SDS011;76068;52.404;16.862;2024-02-28T10:25:21;19.25;;;9.10;;
85642;SDS011;76068;52.404;16.862;2024-02-28T10:27:47;20.75;;;9.85;;
85642;SDS011;76068;52.404;16.862;2024-02-28T10:30:13;21.30;;;10.35;;
85642;SDS011;76068;52.404;16.862;2024-02-28T10:32:48;22.08;;;8.93;;
85642;SDS011;76068;52.404;16.862;2024-02-28T10:35:17;24.27;;;9.98;;
85642;SDS011;76068;52.404;16.862;2024-02-28T10:37:45;21.00;;;11.25;;
85642;SDS011;76068;52.404;16.862;2024-02-28T10:40:12;22.45;;;10.85;;
85642;SDS011;76068;52.404;16.862;2024-02-28T10:42:39;23.58;;;10.80;;
85642;SDS011;76068;52.404;16.862;2024-02-28T10:45:09;18.50;;;9.00;;
85642;SDS011;76068;52.404;16.862;2024-02-28T10:47:38;22.42;;;10.90;;
85642;SDS011;76068;52.404;16.862;2024-02-28T10:50:05;24.80;;;10.90;;
85642;SDS011;76068;52.404;16.862;2024-02-28T10:52:33;18.17;;;8.02;;
85642;SDS011;76068;52.404;16.862;2024-02-28T10:54:59;24.23;;;11.25;;
85642;SDS011;76068;52.404;16.862;2024-02-28T10:57:28;24.63;;;9.80;;
85642;SDS011;76068;52.404;16.862;2024-02-28T10:59:55;22.83;;;11.13;;
85642;SDS011;76068;52.404;16.862;2024-02-28T11:02:23;22.58;;;9.93;;
85642;SDS011;76068;52.404;16.862;2024-02-28T11:04:51;24.20;;;11.18;;
85642;SDS011;76068;52.404;16.862;2024-02-28T11:07:21;24.75;;;13.57;;
85642;SDS011;76068;52.404;16.862;2024-02-28T11:09:47;26.83;;;12.98;;
85642;SDS011;76068;52.404;16.862;2024-02-28T11:12:23;27.67;;;12.50;;
85642;SDS011;76068;52.404;16.862;2024-02-28T11:15:01;23.67;;;10.55;;
85642;SDS011;76068;52.404;16.862;2024-02-28T11:17:30;24.48;;;11.63;;
85642;SDS011;76068;52.404;16.862;2024-02-28T11:19:56;30.42;;;12.38;;
85642;SDS011;76068;52.404;16.862;2024-02-28T11:22:22;24.85;;;11.98;;
85642;SDS011;76068;52.404;16.862;2024-02-28T11:24:49;26.65;;;12.20;;
85642;SDS011;76068;52.404;16.862;2024-02-28T11:27:18;23.23;;;10.93;;
85642;SDS011;76068;52.404;16.862;2024-02-28T11:29:44;29.65;;;12.98;;
85642;SDS011;76068;52.404;16.862;2024-02-28T11:32:14;27.73;;;12.18;;
85642;SDS011;76068;52.404;16.862;2024-02-28T11:34:41;34.22;;;13.65;;
85642;SDS011;76068;52.404;16.862;2024-02-28T11:37:09;32.13;;;13.23;;
85642;SDS011;76068;52.404;16.862;2024-02-28T11:39:35;25.48;;;11.55;;
85642;SDS011;76068;52.404;16.862;2024-02-28T11:42:08;25.50;;;9.75;;
85642;SDS011;76068;52.404;16.862;2024-02-28T11:44:39;27.15;;;11.13;;
85642;SDS011;76068;52.404;16.862;2024-02-28T11:47:05;21.52;;;9.27;;
85642;SDS011;76068;52.404;16.862;2024-02-28T11:49:34;23.15;;;8.75;;
85642;SDS011;76068;52.404;16.862;2024-02-28T11:52:00;23.35;;;10.07;;
85642;SDS011;76068;52.404;16.862;2024-02-28T11:54:26;21.80;;;10.70;;
85642;SDS011;76068;52.404;16.862;2024-02-28T11:56:51;23.40;;;10.50;;
85642;SDS011;76068;52.404;16.862;2024-02-28T11:59:17;23.30;;;11.27;;
85642;SDS011;76068;52.404;16.862;2024-02-28T12:01:43;28.40;;;12.82;;
85642;SDS011;76068;52.404;16.862;2024-02-28T12:04:09;28.85;;;12.40;;
85642;SDS011;76068;52.404;16.862;2024-02-28T12:06:36;31.92;;;12.90;;
85642;SDS011;76068;52.404;16.862;2024-02-28T12:09:03;32.15;;;11.10;;
85642;SDS011;76068;52.404;16.862;2024-02-28T12:11:30;23.80;;;10.98;;
85642;SDS011;76068;52.404;16.862;2024-02-28T12:13:56;25.70;;;10.60;;
85642;SDS011;76068;52.404;16.862;2024-02-28T12:16:23;25.23;;;10.48;;
85642;SDS011;76068;52.404;16.862;2024-02-28T12:18:51;25.88;;;11.20;;
85642;SDS011;76068;52.404;16.862;2024-02-28T12:21:17;25.60;;;11.52;;
85642;SDS011;76068;52.404;16.862;2024-02-28T12:23:44;27.90;;;12.32;;
85642;SDS011;76068;52.404;16.862;2024-02-28T12:26:09;27.67;;;11.68;;
85642;SDS011;76068;52.404;16.862;2024-02-28T12:28:35;25.48;;;12.50;;
85642;SDS011;76068;52.404;16.862;2024-02-28T12:31:01;22.90;;;11.45;;
85642;SDS011;76068;52.404;16.862;2024-02-28T12:36:25;26.15;;;10.48;;
85642;SDS011;76068;52.404;16.862;2024-02-28T12:38:52;24.60;;;9.25;;
85642;SDS011;76068;52.404;16.862;2024-02-28T12:41:17;19.95;;;8.27;;
85642;SDS011;76068;52.404;16.862;2024-02-28T12:43:43;16.75;;;6.75;;
85642;SDS011;76068;52.404;16.862;2024-02-28T12:46:09;17.20;;;8.13;;
85642;SDS011;76068;52.404;16.862;2024-02-28T12:48:38;19.77;;;8.75;;
85642;SDS011;76068;52.404;16.862;2024-02-28T12:51:04;19.40;;;8.50;;
85642;SDS011;76068;52.404;16.862;2024-02-28T12:53:31;20.13;;;8.75;;
85642;SDS011;76068;52.404;16.862;2024-02-28T12:55:57;12.43;;;6.07;;
85642;SDS011;76068;52.404;16.862;2024-02-28T12:58:23;16.60;;;7.60;;
85642;SDS011;76068;52.404;16.862;2024-02-28T13:00:49;17.83;;;6.78;;
85642;SDS011;76068;52.404;16.862;2024-02-28T13:03:15;20.88;;;7.15;;
85642;SDS011;76068;52.404;16.862;2024-02-28T13:05:41;26.88;;;8.95;;
85642;SDS011;76068;52.404;16.862;2024-02-28T13:08:07;24.30;;;11.30;;
85642;SDS011;76068;52.404;16.862;2024-02-28T13:10:33;23.08;;;10.57;;
85642;SDS011;76068;52.404;16.862;2024-02-28T13:13:06;23.45;;;10.05;;
85642;SDS011;76068;52.404;16.862;2024-02-28T13:15:33;30.70;;;12.98;;
85642;SDS011;76068;52.404;16.862;2024-02-28T13:17:59;24.02;;;10.57;;
85642;SDS011;76068;52.404;16.862;2024-02-28T13:20:27;28.55;;;11.07;;
85642;SDS011;76068;52.404;16.862;2024-02-28T13:22:53;23.80;;;10.70;;
85642;SDS011;76068;52.404;16.862;2024-02-28T13:25:19;26.27;;;11.75;;
85642;SDS011;76068;52.404;16.862;2024-02-28T13:27:45;25.38;;;12.35;;
85642;SDS011;76068;52.404;16.862;2024-02-28T13:30:11;31.30;;;16.45;;
85642;SDS011;76068;52.404;16.862;2024-02-28T13:32:38;26.15;;;11.80;;
85642;SDS011;76068;52.404;16.862;2024-02-28T13:35:03;30.38;;;13.27;;
85642;SDS011;76068;52.404;16.862;2024-02-28T13:37:29;28.38;;;10.90;;
85642;SDS011;76068;52.404;16.862;2024-02-28T13:39:56;30.35;;;12.88;;
85642;SDS011;76068;52.404;16.862;2024-02-28T13:42:22;34.70;;;15.10;;
85642;SDS011;76068;52.404;16.862;2024-02-28T13:44:50;36.28;;;14.93;;
85642;SDS011;76068;52.404;16.862;2024-02-28T13:47:16;31.92;;;15.07;;
85642;SDS011;76068;52.404;16.862;2024-02-28T13:49:42;37.58;;;16.90;;
85642;SDS011;76068;52.404;16.862;2024-02-28T13:52:08;40.35;;;14.70;;
85642;SDS011;76068;52.404;16.862;2024-02-28T13:54:34;48.15;;;21.17;;
85642;SDS011;76068;52.404;16.862;2024-02-28T13:57:00;41.13;;;16.27;;
85642;SDS011;76068;52.404;16.862;2024-02-28T13:59:27;47.53;;;19.05;;
85642;SDS011;76068;52.404;16.862;2024-02-28T14:01:53;53.17;;;19.52;;
85642;SDS011;76068;52.404;16.862;2024-02-28T14:04:18;48.08;;;18.70;;
85642;SDS011;76068;52.404;16.862;2024-02-28T14:06:45;48.63;;;17.38;;
85642;SDS011;76068;52.404;16.862;2024-02-28T14:09:11;48.03;;;16.17;;
85642;SDS011;76068;52.404;16.862;2024-02-28T14:11:37;168.95;;;76.28;;